Terminal Aerodrome Forecast
Issued by NWS

Home | Current Version | Previous Version | Text Only | Print | Product List | Glossary On
Versions: 1 2 3 4 5 6 7 8 9 10 11 12 13 14 15 16 17 18 19 20 21 22
934
FTUS43 KMQT 251351 AAA
TAFSAW
TAF AMD
KSAW 251351Z 2514/2612 30011G19KT P6SM SCT030
     FM251900 33010G16KT P6SM FEW050
     FM252300 34008KT P6SM SKC
     FM260200 23003KT P6SM SKC=

USA.gov is the U.S. government's official web portal to all federal, state and local government web resources and services.